createdAt,value
2022-10-17T00:01:37.325Z,96787.34
2022-10-17T00:04:04.237Z,96788.34
2022-10-17T00:06:30.803Z,96791.00
2022-10-17T00:08:57.249Z,96791.81
2022-10-17T00:11:25.543Z,96795.75
2022-10-17T00:13:55.200Z,96795.72
2022-10-17T00:16:22.156Z,96798.25
2022-10-17T00:18:49.067Z,96798.69
2022-10-17T00:21:18.023Z,96798.41
2022-10-17T00:23:45.649Z,96803.03
2022-10-17T00:26:12.155Z,96807.00
2022-10-17T00:28:41.232Z,96803.41
2022-10-17T00:31:08.674Z,96801.66
2022-10-17T00:33:36.147Z,96802.44
2022-10-17T00:36:05.902Z,96805.78
2022-10-17T00:38:33.549Z,96807.34
2022-10-17T00:41:01.126Z,96808.75
2022-10-17T00:43:29.895Z,96809.69
2022-10-17T00:45:59.564Z,96815.66
2022-10-17T00:48:27.232Z,96820.75
2022-10-17T00:50:54.690Z,96810.69
2022-10-17T00:53:21.561Z,96812.28
2022-10-17T00:55:48.957Z,96820.63
2022-10-17T00:58:17.462Z,96821.47
2022-10-17T01:00:44.409Z,96812.66
2022-10-17T01:03:11.857Z,96818.22
2022-10-17T01:05:40.442Z,96806.59
2022-10-17T01:08:10.582Z,96823.78
2022-10-17T01:10:37.467Z,96820.31
2022-10-17T01:13:04.803Z,96823.72
2022-10-17T01:15:32.237Z,96814.69
2022-10-17T01:17:59.195Z,96824.94
2022-10-17T01:20:26.065Z,96827.09
2022-10-17T01:22:52.980Z,96831.22
2022-10-17T01:25:22.507Z,96834.00
2022-10-17T01:27:49.355Z,96830.47
2022-10-17T01:30:16.186Z,96831.53
2022-10-17T01:32:42.998Z,96831.66
2022-10-17T01:35:09.801Z,96840.59
2022-10-17T01:37:36.612Z,96846.81
2022-10-17T01:40:03.438Z,96848.31
2022-10-17T01:42:30.565Z,96844.56
2022-10-17T01:45:00.417Z,96842.69
2022-10-17T01:47:34.161Z,96835.28
2022-10-17T01:50:01.007Z,96839.81
2022-10-17T01:52:30.083Z,96836.78
2022-10-17T01:54:56.897Z,96834.97
2022-10-17T01:57:23.677Z,96836.91
2022-10-17T01:59:51.623Z,96837.47
2022-10-17T02:02:18.915Z,96835.00
2022-10-17T02:04:46.606Z,96832.03
2022-10-17T02:07:20.616Z,96828.03
2022-10-17T02:09:48.419Z,96826.47
2022-10-17T02:12:22.580Z,96839.06
2022-10-17T02:14:49.174Z,96836.44
2022-10-17T02:17:15.990Z,96842.41
2022-10-17T02:19:42.841Z,96849.31
2022-10-17T02:22:09.320Z,96846.50
2022-10-17T02:24:37.664Z,96848.03
2022-10-17T02:27:09.590Z,96851.91
2022-10-17T02:29:39.324Z,96847.09
2022-10-17T02:32:07.987Z,96847.16
2022-10-17T02:34:41.916Z,96845.78
2022-10-17T02:37:11.675Z,96850.53
2022-10-17T02:39:38.469Z,96848.31
2022-10-17T02:42:05.242Z,96848.44
2022-10-17T02:44:39.320Z,96854.81
2022-10-17T02:47:06.163Z,96852.47
2022-10-17T02:49:33.461Z,96858.34
2022-10-17T02:52:03.110Z,96852.78
2022-10-17T02:54:31.164Z,96846.81
2022-10-17T02:56:58.021Z,96858.00
2022-10-17T02:59:27.671Z,96861.38
2022-10-17T03:01:54.588Z,96859.16
2022-10-17T03:04:23.709Z,96872.75
2022-10-17T03:06:51.075Z,96869.19
2022-10-17T03:09:18.482Z,96866.28
2022-10-17T03:11:47.965Z,96868.09
2022-10-17T03:14:17.651Z,96872.91
2022-10-17T03:16:47.289Z,96875.16
2022-10-17T03:19:17.844Z,96873.06
2022-10-17T03:21:44.732Z,96875.16
2022-10-17T03:24:13.661Z,96877.03
2022-10-17T03:26:40.506Z,96866.94
2022-10-17T03:29:07.360Z,96872.88
2022-10-17T03:31:34.754Z,96871.53
2022-10-17T03:34:01.558Z,96874.47
2022-10-17T03:36:31.008Z,96873.28
2022-10-17T03:38:57.823Z,96880.53
2022-10-17T03:41:24.760Z,96886.81
2022-10-17T03:43:51.558Z,96882.31
2022-10-17T03:48:50.319Z,96877.38
2022-10-17T03:51:16.877Z,96879.09
2022-10-17T03:53:47.016Z,96881.28
2022-10-17T03:56:14.290Z,96883.28
2022-10-17T03:58:41.116Z,96883.75
2022-10-17T04:01:10.819Z,96890.44
2022-10-17T04:03:37.654Z,96894.97
2022-10-17T04:06:04.987Z,96903.91
2022-10-17T04:08:36.399Z,96898.28
2022-10-17T04:11:07.780Z,96901.81
2022-10-17T04:13:36.060Z,96905.53
2022-10-17T04:16:03.600Z,96901.94
2022-10-17T04:18:30.592Z,96909.09
2022-10-17T04:20:57.633Z,96905.84
2022-10-17T04:23:24.952Z,96911.94
2022-10-17T04:25:51.874Z,96915.84
2022-10-17T04:28:19.635Z,96915.72
2022-10-17T04:30:48.973Z,96905.63
2022-10-17T04:33:17.575Z,96913.50
2022-10-17T04:35:45.511Z,96902.03
2022-10-17T04:38:14.195Z,96908.91
2022-10-17T04:40:41.060Z,96918.00
2022-10-17T04:43:07.970Z,96922.66
2022-10-17T04:45:34.801Z,96925.06
2022-10-17T04:48:01.287Z,96926.13
2022-10-17T04:50:29.614Z,96933.34
2022-10-17T04:52:56.985Z,96933.16
2022-10-17T04:55:23.866Z,96930.53
2022-10-17T04:57:55.580Z,96928.38
2022-10-17T05:00:24.201Z,96929.84
2022-10-17T05:02:51.367Z,96938.06
2022-10-17T05:05:20.886Z,96931.34
2022-10-17T05:10:38.800Z,96933.59
2022-10-17T05:13:06.210Z,96942.47
2022-10-17T05:15:34.695Z,96945.16
2022-10-17T05:18:01.976Z,96940.59
2022-10-17T05:23:19.373Z,96943.69
2022-10-17T05:25:50.117Z,96945.69
2022-10-17T05:28:19.159Z,96947.34
2022-10-17T05:34:08.991Z,96950.88
2022-10-17T05:36:42.580Z,96960.28
2022-10-17T05:39:10.747Z,96967.19
2022-10-17T05:41:40.537Z,96968.00
2022-10-17T05:44:07.958Z,96976.22
2022-10-17T05:46:34.590Z,96971.50
2022-10-17T05:49:14.683Z,96973.19
2022-10-17T05:51:54.014Z,96983.75
2022-10-17T05:54:21.160Z,96978.16
2022-10-17T05:56:54.928Z,96980.59
2022-10-17T06:02:15.924Z,96986.75
2022-10-17T06:04:43.305Z,96989.72
2022-10-17T06:07:13.724Z,96987.56
2022-10-17T06:09:41.658Z,96990.84
2022-10-17T06:15:07.543Z,97005.19
2022-10-17T06:17:36.386Z,97007.00
2022-10-17T06:20:04.150Z,97013.59
2022-10-17T06:22:31.601Z,97013.06
2022-10-17T06:24:59.769Z,97026.47
2022-10-17T06:27:26.717Z,97020.31
2022-10-17T06:29:54.579Z,97024.22
2022-10-17T06:32:24.280Z,97035.16
2022-10-17T06:34:51.968Z,97032.72
2022-10-17T06:37:20.238Z,97035.22
2022-10-17T06:39:47.660Z,97033.75
2022-10-17T06:42:17.080Z,97029.88
2022-10-17T06:44:54.514Z,97028.69
2022-10-17T06:47:41.841Z,97038.31
2022-10-17T06:50:09.455Z,97035.78
2022-10-17T06:52:36.824Z,97039.06
2022-10-17T06:57:31.018Z,97042.09
2022-10-17T06:59:58.246Z,97041.34
2022-10-17T07:02:25.372Z,97041.19
2022-10-17T07:04:57.208Z,97047.09
2022-10-17T07:07:24.737Z,97050.94
2022-10-17T07:09:59.011Z,97055.84
2022-10-17T07:12:26.033Z,97054.13
2022-10-17T07:14:53.604Z,97061.66
2022-10-17T07:17:20.676Z,97066.00
2022-10-17T07:19:48.263Z,97068.44
2022-10-17T07:22:15.429Z,97076.16
2022-10-17T07:24:42.967Z,97077.13
2022-10-17T07:27:10.203Z,97086.03
2022-10-17T07:29:37.978Z,97087.44
2022-10-17T07:32:07.598Z,97095.47
2022-10-17T07:34:35.154Z,97091.53
2022-10-17T07:56:36.962Z,97123.56
2022-10-17T07:59:10.894Z,97117.00
2022-10-17T08:01:50.432Z,97112.59
2022-10-17T08:11:17.238Z,97124.72
2022-10-17T08:19:38.471Z,97127.59
2022-10-17T08:22:06.022Z,97131.84
2022-10-17T08:24:36.080Z,97132.56
2022-10-17T08:27:03.826Z,97137.09
2022-10-17T08:29:35.262Z,97134.63
2022-10-17T08:32:09.912Z,97130.97
2022-10-17T08:34:38.962Z,97134.72
2022-10-17T08:37:08.740Z,97133.75
2022-10-17T08:39:36.778Z,97140.44
2022-10-17T08:42:09.088Z,97128.56
2022-10-17T08:44:46.204Z,97132.00
2022-10-17T08:47:17.780Z,97134.47
2022-10-17T08:49:46.967Z,97139.13
2022-10-17T09:18:13.630Z,97143.25
2022-10-17T14:42:51.171Z,97028.53
2022-10-17T14:45:29.466Z,97027.81
2022-10-17T14:48:17.188Z,97038.84
2022-10-17T14:54:24.060Z,97032.47
2022-10-17T15:32:27.825Z,97055.00
2022-10-17T15:53:24.806Z,97063.38
2022-10-17T15:55:52.222Z,97064.91
2022-10-17T16:04:41.417Z,97065.84
2022-10-17T16:13:14.156Z,97077.84
2022-10-17T16:27:47.149Z,97092.84
2022-10-17T16:46:02.575Z,97116.47
2022-10-17T16:48:51.958Z,97117.88
2022-10-17T16:55:28.639Z,97123.59
2022-10-17T17:04:35.743Z,97129.88
2022-10-17T17:16:07.083Z,97141.06
2022-10-17T17:28:16.600Z,97158.59
2022-10-17T17:34:00.272Z,97159.81
2022-10-17T17:36:47.486Z,97177.09
2022-10-17T18:22:20.934Z,97206.16
2022-10-17T18:24:48.753Z,97203.94
2022-10-17T18:27:17.498Z,97202.88
2022-10-17T18:29:44.021Z,97209.00
2022-10-17T18:32:15.612Z,97198.31
2022-10-17T18:34:42.116Z,97198.63
2022-10-17T18:37:08.845Z,97201.16
2022-10-17T18:45:19.643Z,97206.75
2022-10-17T18:47:46.423Z,97205.69
2022-10-17T18:50:15.220Z,97203.78
2022-10-17T18:52:44.018Z,97208.78
2022-10-17T18:55:10.920Z,97209.28
2022-10-17T18:57:37.783Z,97210.31
2022-10-17T19:03:22.139Z,97214.06
2022-10-17T19:08:35.625Z,97218.31
2022-10-17T19:16:53.066Z,97218.75
2022-10-17T19:44:26.697Z,97221.31
2022-10-17T19:47:12.046Z,97224.13
2022-10-17T19:52:53.781Z,97232.34
2022-10-17T19:55:23.483Z,97232.34
2022-10-17T19:57:50.278Z,97231.91
2022-10-17T20:00:17.045Z,97233.88
2022-10-17T20:02:43.574Z,97233.44
2022-10-17T20:05:18.484Z,97238.72
2022-10-17T20:07:45.522Z,97230.97
2022-10-17T20:10:11.996Z,97229.78
2022-10-17T20:12:38.804Z,97225.50
2022-10-17T20:15:06.313Z,97218.56
2022-10-17T20:20:10.137Z,97228.53
2022-10-17T20:22:39.334Z,97232.97
2022-10-17T20:25:07.978Z,97242.88
2022-10-17T20:27:34.756Z,97238.59
2022-10-17T20:30:01.178Z,97241.47
2022-10-17T20:32:28.199Z,97235.69
2022-10-17T20:34:54.831Z,97242.50
2022-10-17T20:37:22.611Z,97231.84
2022-10-17T20:39:55.758Z,97244.50
2022-10-17T20:42:32.786Z,97244.88
2022-10-17T20:44:59.216Z,97244.50
2022-10-17T20:47:40.518Z,97256.75
2022-10-17T20:50:14.318Z,97268.50
2022-10-17T20:52:43.262Z,97261.97
2022-10-17T20:55:12.479Z,97268.22
2022-10-17T20:57:38.942Z,97264.78
2022-10-17T21:00:05.890Z,97262.25
2022-10-17T21:02:32.373Z,97265.06
2022-10-17T21:04:59.073Z,97265.72
2022-10-17T21:07:28.257Z,97268.97
2022-10-17T21:23:05.684Z,97260.91
2022-10-17T21:25:33.010Z,97268.78
2022-10-17T21:28:03.257Z,97277.06
2022-10-17T21:30:33.966Z,97260.84
2022-10-17T21:33:15.619Z,97258.09
2022-10-17T21:35:42.756Z,97261.34
2022-10-17T21:38:10.622Z,97265.28
2022-10-17T21:40:43.732Z,97256.22
2022-10-17T21:43:13.673Z,97259.59
2022-10-17T21:45:42.169Z,97266.41
2022-10-17T21:48:13.477Z,97262.38
2022-10-17T21:50:40.481Z,97262.56
2022-10-17T21:53:09.062Z,97255.22
2022-10-17T21:55:39.063Z,97249.09
2022-10-17T21:58:12.159Z,97253.84
2022-10-17T22:00:42.068Z,97256.88
2022-10-17T22:03:12.531Z,97254.13
2022-10-17T22:05:43.206Z,97260.50
2022-10-17T22:08:14.426Z,97260.56
2022-10-17T22:10:41.458Z,97272.41
2022-10-17T22:13:08.483Z,97263.25
2022-10-17T22:15:40.828Z,97262.91
2022-10-17T22:18:07.835Z,97267.72
2022-10-17T22:20:34.709Z,97259.25
2022-10-17T22:23:01.649Z,97259.81
2022-10-17T22:25:28.762Z,97264.56
2022-10-17T22:27:55.804Z,97259.31
2022-10-17T22:30:22.518Z,97270.41
2022-10-17T22:32:49.138Z,97270.84
2022-10-17T22:35:16.561Z,97273.75
2022-10-17T22:37:43.678Z,97267.25
2022-10-17T22:40:10.686Z,97265.44
2022-10-17T22:42:37.680Z,97256.41
2022-10-17T22:45:04.902Z,97255.66
2022-10-17T22:47:35.833Z,97263.31
2022-10-17T22:50:05.184Z,97262.72
2022-10-17T22:52:34.976Z,97263.19
2022-10-17T22:55:03.265Z,97256.75
2022-10-17T22:57:30.804Z,97257.41
2022-10-17T23:00:00.077Z,97257.31
2022-10-17T23:02:31.659Z,97262.09
2022-10-17T23:05:05.961Z,97254.72
2022-10-17T23:07:35.763Z,97257.69
2022-10-17T23:10:02.640Z,97257.94
2022-10-17T23:12:30.260Z,97259.16
2022-10-17T23:14:57.494Z,97260.63
2022-10-17T23:17:24.632Z,97259.94
2022-10-17T23:19:54.144Z,97258.75
2022-10-17T23:22:23.714Z,97256.34
2022-10-17T23:24:50.431Z,97256.22
2022-10-17T23:27:20.229Z,97262.84
2022-10-17T23:29:53.464Z,97255.91
2022-10-17T23:32:32.144Z,97247.28
2022-10-17T23:35:17.955Z,97258.56
2022-10-17T23:37:45.778Z,97255.28
2022-10-17T23:40:15.152Z,97258.44
2022-10-17T23:42:42.128Z,97264.72
2022-10-17T23:45:11.233Z,97254.34
2022-10-17T23:47:37.879Z,97256.66
2022-10-17T23:50:04.748Z,97255.06
2022-10-17T23:52:31.630Z,97256.56
2022-10-17T23:57:52.554Z,97249.09
